createdAt,value
2024-02-11T00:01:05.327Z,7.64
2024-02-11T00:03:06.920Z,7.52
2024-02-11T00:05:08.997Z,7.14
2024-02-11T00:07:10.891Z,7.06
2024-02-11T00:09:12.781Z,7.04
2024-02-11T00:11:15.057Z,6.86
2024-02-11T00:13:16.844Z,7.13
2024-02-11T00:15:18.438Z,7.11
2024-02-11T00:17:20.093Z,6.96
2024-02-11T00:19:21.731Z,7.00
2024-02-11T00:21:23.605Z,7.08
2024-02-11T00:23:25.191Z,6.85
2024-02-11T00:25:26.724Z,6.97
2024-02-11T00:27:28.503Z,7.05
2024-02-11T00:29:30.042Z,7.12
2024-02-11T00:31:31.631Z,7.16
2024-02-11T00:33:33.420Z,7.15
2024-02-11T00:35:35.130Z,7.14
2024-02-11T00:37:36.688Z,7.06
2024-02-11T00:39:39.088Z,7.08
2024-02-11T00:41:41.806Z,7.15
2024-02-11T00:43:43.381Z,7.16
2024-02-11T00:45:45.183Z,7.08
2024-02-11T00:47:46.828Z,7.15
2024-02-11T00:49:48.423Z,7.09
2024-02-11T00:51:50.080Z,6.97
2024-02-11T00:53:51.778Z,6.94
2024-02-11T00:55:53.842Z,6.83
2024-02-11T00:57:55.386Z,6.86
2024-02-11T00:59:57.043Z,7.00
2024-02-11T01:01:58.809Z,6.93
2024-02-11T01:04:00.432Z,6.90
2024-02-11T01:06:02.182Z,7.06
2024-02-11T01:08:04.047Z,6.89
2024-02-11T01:10:10.043Z,7.07
2024-02-11T01:12:11.598Z,6.98
2024-02-11T01:14:13.202Z,7.12
2024-02-11T01:16:14.827Z,7.06
2024-02-11T01:18:16.532Z,7.21
2024-02-11T01:20:18.394Z,7.11
2024-02-11T01:22:19.945Z,7.05
2024-02-11T01:24:21.648Z,7.12
2024-02-11T01:26:23.286Z,6.90
2024-02-11T01:28:24.800Z,7.12
2024-02-11T01:30:26.499Z,6.86
2024-02-11T01:32:28.373Z,6.99
2024-02-11T01:34:29.960Z,7.02
2024-02-11T01:36:31.665Z,6.98
2024-02-11T01:38:33.331Z,6.91
2024-02-11T01:40:35.199Z,6.95
2024-02-11T01:42:37.035Z,6.68
2024-02-11T01:44:38.592Z,6.71
2024-02-11T01:46:40.339Z,6.75
2024-02-11T01:48:42.306Z,6.81
2024-02-11T01:50:45.126Z,6.74
2024-02-11T01:52:48.612Z,6.66
2024-02-11T01:54:50.888Z,6.95
2024-02-11T01:56:52.486Z,6.81
2024-02-11T01:58:54.294Z,6.83
2024-02-11T02:00:56.403Z,6.88
2024-02-11T02:03:00.407Z,6.89
2024-02-11T02:05:02.552Z,6.88
2024-02-11T02:07:05.206Z,6.98
2024-02-11T02:09:06.988Z,6.61
2024-02-11T02:11:10.896Z,6.82
2024-02-11T02:13:12.515Z,6.59
2024-02-11T02:15:14.260Z,6.73
2024-02-11T02:17:16.087Z,6.55
2024-02-11T02:19:17.652Z,6.63
2024-02-11T02:21:19.550Z,6.86
2024-02-11T02:23:21.573Z,6.62
2024-02-11T02:25:23.137Z,6.82
2024-02-11T02:27:24.834Z,6.78
2024-02-11T02:29:26.493Z,6.54
2024-02-11T02:31:28.011Z,6.72
2024-02-11T02:33:30.164Z,6.39
2024-02-11T02:35:31.804Z,6.65
2024-02-11T02:37:33.458Z,6.70
2024-02-11T02:39:36.235Z,6.54
2024-02-11T02:41:37.837Z,6.41
2024-02-11T02:43:39.452Z,6.53
2024-02-11T02:45:41.057Z,6.58
2024-02-11T02:47:42.754Z,6.56
2024-02-11T02:49:44.427Z,6.59
2024-02-11T02:51:46.107Z,6.49
2024-02-11T02:53:47.920Z,6.54
2024-02-11T02:55:49.491Z,6.48
2024-02-11T02:57:51.194Z,6.57
2024-02-11T02:59:52.743Z,6.53
2024-02-11T03:01:57.824Z,6.38
2024-02-11T03:04:03.165Z,6.56
2024-02-11T03:06:04.860Z,6.57
2024-02-11T03:08:06.648Z,6.57
2024-02-11T03:10:08.812Z,6.29
2024-02-11T03:12:10.694Z,6.32
2024-02-11T03:14:12.348Z,6.55
2024-02-11T03:16:14.025Z,6.51
2024-02-11T03:18:16.166Z,6.61
2024-02-11T03:20:18.412Z,6.64
2024-02-11T03:22:20.008Z,6.35
2024-02-11T03:24:22.748Z,6.46
2024-02-11T03:26:24.317Z,6.54
2024-02-11T03:28:25.866Z,6.48
2024-02-11T03:30:28.008Z,6.74
2024-02-11T03:32:30.918Z,6.57
2024-02-11T03:34:32.587Z,6.47
2024-02-11T03:36:34.588Z,6.51
2024-02-11T03:38:36.112Z,6.74
2024-02-11T03:40:37.654Z,6.34
2024-02-11T03:42:39.474Z,6.44
2024-02-11T03:44:41.009Z,6.70
2024-02-11T03:46:42.592Z,6.23
2024-02-11T03:48:44.528Z,6.49
2024-02-11T03:50:46.345Z,6.31
2024-02-11T03:52:49.438Z,6.58
2024-02-11T03:54:51.527Z,6.49
2024-02-11T03:56:53.553Z,6.58
2024-02-11T03:58:56.006Z,6.50
2024-02-11T04:00:58.443Z,6.48
2024-02-11T04:03:00.524Z,6.73
2024-02-11T04:05:02.091Z,6.53
2024-02-11T04:07:04.022Z,6.55
2024-02-11T04:09:05.803Z,6.57
2024-02-11T04:11:07.366Z,6.53
2024-02-11T04:13:09.221Z,6.65
2024-02-11T04:15:10.794Z,6.83
2024-02-11T04:17:12.553Z,6.81
2024-02-11T04:19:14.485Z,6.59
2024-02-11T04:21:19.205Z,6.61
2024-02-11T04:23:20.847Z,6.54
2024-02-11T04:25:22.630Z,6.97
2024-02-11T04:27:24.166Z,6.59
2024-02-11T04:29:25.876Z,6.70
2024-02-11T04:31:27.485Z,6.57
2024-02-11T04:33:29.113Z,6.56
2024-02-11T04:35:31.582Z,6.67
2024-02-11T04:37:33.261Z,6.68
2024-02-11T04:39:35.121Z,6.66
2024-02-11T04:41:37.300Z,6.29
2024-02-11T04:43:38.927Z,6.56
2024-02-11T04:45:40.510Z,6.83
2024-02-11T04:47:46.273Z,6.73
2024-02-11T04:49:47.993Z,6.51
2024-02-11T04:51:52.624Z,6.38
2024-02-11T04:53:54.189Z,6.41
2024-02-11T04:55:55.938Z,6.35
2024-02-11T04:57:59.052Z,6.48
2024-02-11T05:00:00.640Z,6.36
2024-02-11T05:02:02.391Z,6.53
2024-02-11T05:04:04.378Z,6.68
2024-02-11T05:06:06.086Z,6.50
2024-02-11T05:08:08.070Z,6.51
2024-02-11T05:10:09.810Z,6.71
2024-02-11T05:12:11.371Z,6.63
2024-02-11T05:14:13.071Z,6.58
2024-02-11T05:16:14.678Z,6.51
2024-02-11T05:18:16.753Z,6.41
2024-02-11T05:20:25.930Z,6.45
2024-02-11T05:22:27.592Z,6.44
2024-02-11T05:24:29.260Z,6.38
2024-02-11T05:26:31.115Z,6.48
2024-02-11T05:28:33.374Z,6.03
2024-02-11T05:30:34.932Z,6.36
2024-02-11T05:32:36.673Z,6.41
2024-02-11T05:34:38.265Z,6.29
2024-02-11T05:36:42.932Z,6.23
2024-02-11T05:38:44.484Z,6.18
2024-02-11T05:40:46.082Z,6.21
2024-02-11T05:42:47.805Z,6.33
2024-02-11T05:44:49.519Z,6.49
2024-02-11T05:46:51.129Z,6.29
2024-02-11T05:48:52.834Z,6.46
2024-02-11T05:50:54.650Z,6.33
2024-02-11T05:52:56.265Z,6.18
2024-02-11T05:54:57.799Z,6.37
2024-02-11T05:56:59.369Z,6.42
2024-02-11T05:59:00.991Z,6.45
2024-02-11T06:01:02.706Z,6.48
2024-02-11T06:03:04.418Z,6.41
2024-02-11T06:05:06.080Z,6.37
2024-02-11T06:07:07.685Z,6.54
2024-02-11T06:09:10.615Z,6.41
2024-02-11T06:11:12.374Z,6.54
2024-02-11T06:13:14.139Z,6.53
2024-02-11T06:15:17.461Z,6.45
2024-02-11T06:17:19.178Z,6.43
2024-02-11T06:19:21.111Z,6.55
2024-02-11T06:21:22.657Z,6.48
2024-02-11T06:23:24.369Z,6.57
2024-02-11T06:25:26.359Z,6.49
2024-02-11T06:27:28.106Z,6.70
2024-02-11T06:29:29.644Z,6.63
2024-02-11T06:31:31.317Z,6.58
2024-02-11T06:33:33.079Z,6.32
2024-02-11T06:35:34.764Z,6.59
2024-02-11T06:37:44.312Z,6.38
2024-02-11T06:39:45.947Z,6.62
2024-02-11T06:41:47.736Z,6.65
2024-02-11T06:43:49.425Z,6.47
2024-02-11T06:45:51.008Z,6.53
2024-02-11T06:47:52.685Z,6.36
2024-02-11T06:49:54.457Z,6.15
2024-02-11T06:51:56.282Z,6.40
2024-02-11T06:53:57.842Z,6.64
2024-02-11T06:55:59.601Z,6.59
2024-02-11T06:58:01.216Z,6.68
2024-02-11T07:00:02.879Z,6.62
2024-02-11T07:02:04.773Z,6.52
2024-02-11T07:04:06.447Z,6.53
2024-02-11T07:06:08.083Z,6.57
2024-02-11T07:08:09.831Z,6.63
2024-02-11T07:10:11.465Z,6.59
2024-02-11T07:12:13.048Z,6.62
2024-02-11T07:14:14.799Z,6.51
2024-02-11T07:16:16.406Z,6.55
2024-02-11T07:18:18.169Z,6.58
2024-02-11T07:20:20.119Z,6.53
2024-02-11T07:22:21.903Z,6.63
2024-02-11T07:24:23.445Z,6.63
2024-02-11T07:26:25.119Z,6.56
2024-02-11T07:28:26.731Z,6.80
2024-02-11T07:30:28.315Z,6.53
2024-02-11T07:32:30.227Z,6.52
2024-02-11T07:34:32.021Z,6.87
2024-02-11T07:36:33.814Z,6.96
2024-02-11T07:38:35.601Z,6.65
2024-02-11T07:40:37.266Z,6.42
2024-02-11T07:42:38.868Z,6.30
2024-02-11T07:44:40.615Z,6.57
2024-02-11T07:46:42.190Z,6.70
2024-02-11T07:48:44.405Z,6.67
2024-02-11T07:50:47.087Z,6.69
2024-02-11T07:52:49.849Z,6.65
2024-02-11T07:54:51.537Z,6.79
2024-02-11T07:56:53.469Z,6.73
2024-02-11T07:58:55.330Z,7.03
2024-02-11T08:00:57.012Z,6.94
2024-02-11T08:03:02.019Z,6.71
2024-02-11T08:05:04.177Z,7.01
2024-02-11T08:07:05.828Z,6.95
2024-02-11T08:09:07.669Z,7.15
2024-02-11T08:11:09.235Z,7.08
2024-02-11T08:13:10.865Z,7.20
2024-02-11T08:15:12.645Z,7.08
2024-02-11T08:17:14.448Z,6.97
2024-02-11T08:19:16.125Z,7.15
2024-02-11T08:21:17.764Z,7.14
2024-02-11T08:23:19.389Z,7.34
2024-02-11T08:25:20.943Z,7.18
2024-02-11T08:27:22.615Z,7.31
2024-02-11T08:29:24.457Z,7.38
2024-02-11T08:31:26.156Z,7.29
2024-02-11T08:33:27.926Z,7.38
2024-02-11T08:35:29.774Z,7.41
2024-02-11T08:37:31.392Z,7.30
2024-02-11T08:39:33.084Z,7.44
2024-02-11T08:41:34.750Z,7.25
2024-02-11T08:43:36.419Z,7.38
2024-02-11T08:45:38.158Z,7.44
2024-02-11T08:47:40.604Z,7.32
2024-02-11T08:49:42.505Z,7.31
2024-02-11T08:51:44.170Z,7.36
2024-02-11T08:53:45.704Z,7.30
2024-02-11T08:55:47.280Z,7.13
2024-02-11T08:57:49.572Z,7.07
2024-02-11T08:59:51.192Z,7.02
2024-02-11T09:01:53.403Z,6.77
2024-02-11T09:03:54.974Z,7.03
2024-02-11T09:05:56.657Z,7.14
2024-02-11T09:07:58.308Z,6.97
2024-02-11T09:09:59.876Z,7.23
2024-02-11T09:12:01.571Z,7.33
2024-02-11T09:14:03.126Z,7.11
2024-02-11T09:16:05.048Z,7.13
2024-02-11T09:18:07.232Z,6.93
2024-02-11T09:20:09.736Z,7.20
2024-02-11T09:22:11.379Z,7.02
2024-02-11T09:24:13.109Z,7.32
2024-02-11T09:26:18.510Z,7.25
2024-02-11T09:28:20.491Z,7.34
2024-02-11T09:30:22.418Z,7.47
2024-02-11T09:32:24.054Z,7.82
2024-02-11T09:34:25.751Z,7.82
2024-02-11T09:36:27.427Z,7.92
2024-02-11T09:38:29.019Z,7.66
2024-02-11T09:40:30.593Z,7.75
2024-02-11T09:42:32.216Z,7.63
2024-02-11T09:44:36.938Z,7.71
2024-02-11T09:46:42.145Z,7.45
2024-02-11T09:48:49.655Z,7.42
2024-02-11T09:50:52.570Z,7.50
2024-02-11T09:52:54.387Z,7.43
2024-02-11T09:54:56.292Z,7.59
2024-02-11T09:56:57.948Z,7.58
2024-02-11T09:58:59.707Z,7.66
2024-02-11T10:01:02.232Z,7.76
2024-02-11T10:03:04.028Z,7.70
2024-02-11T10:05:07.841Z,7.82
2024-02-11T10:07:16.118Z,7.60
2024-02-11T10:09:17.647Z,7.53
2024-02-11T10:11:19.861Z,7.67
2024-02-11T10:13:22.267Z,7.81
2024-02-11T10:15:26.028Z,7.69
2024-02-11T10:17:27.833Z,7.75
2024-02-11T10:19:29.446Z,7.71
2024-02-11T10:21:31.151Z,7.95
2024-02-11T10:23:32.756Z,7.69
2024-02-11T10:25:34.951Z,7.77
2024-02-11T10:27:36.856Z,7.62
2024-02-11T10:29:38.383Z,7.65
2024-02-11T10:31:42.462Z,7.69
2024-02-11T10:33:44.435Z,7.77
2024-02-11T10:35:46.096Z,7.83
2024-02-11T10:37:49.544Z,7.87
2024-02-11T10:39:53.030Z,7.85
2024-02-11T10:41:54.757Z,7.56
2024-02-11T10:43:57.006Z,7.52
2024-02-11T10:45:58.764Z,7.54
2024-02-11T10:48:00.433Z,7.50
2024-02-11T10:50:02.321Z,7.28
2024-02-11T10:52:08.138Z,7.50
2024-02-11T10:54:10.560Z,7.51
2024-02-11T10:56:14.602Z,7.98
2024-02-11T10:58:16.607Z,7.65
2024-02-11T11:00:21.342Z,7.61
2024-02-11T11:02:25.609Z,7.60
2024-02-11T11:04:28.459Z,7.64
2024-02-11T11:06:31.878Z,7.53
2024-02-11T11:08:33.682Z,7.73
2024-02-11T11:10:36.727Z,7.86
2024-02-11T11:12:45.486Z,7.87
2024-02-11T11:14:47.458Z,7.84
2024-02-11T11:16:49.137Z,7.80
2024-02-11T11:18:50.881Z,7.95
2024-02-11T11:20:53.928Z,7.95
2024-02-11T11:22:56.791Z,8.00
2024-02-11T11:24:58.724Z,7.95
2024-02-11T11:27:00.336Z,8.10
2024-02-11T11:29:05.608Z,8.01
2024-02-11T11:31:07.170Z,7.97
2024-02-11T11:33:08.878Z,8.02
2024-02-11T11:35:10.652Z,8.09
2024-02-11T11:37:12.583Z,8.36
2024-02-11T11:39:14.200Z,8.21
2024-02-11T11:41:15.905Z,8.26
2024-02-11T11:43:17.983Z,8.35
2024-02-11T11:45:19.937Z,8.28
2024-02-11T11:47:22.522Z,8.15
2024-02-11T11:49:24.460Z,8.54
2024-02-11T11:51:26.572Z,8.15
2024-02-11T11:53:28.958Z,8.21
2024-02-11T11:55:30.575Z,8.43
2024-02-11T11:57:34.345Z,8.49
2024-02-11T11:59:36.481Z,8.52
2024-02-11T12:01:38.097Z,8.24
2024-02-11T12:03:39.726Z,8.34
2024-02-11T12:05:41.361Z,8.57
2024-02-11T12:07:43.038Z,8.40
2024-02-11T12:09:44.676Z,8.39
2024-02-11T12:11:46.277Z,8.71
2024-02-11T12:13:48.184Z,8.62
2024-02-11T12:15:50.229Z,8.81
2024-02-11T12:17:52.160Z,8.77
2024-02-11T12:19:54.072Z,8.77
2024-02-11T12:21:56.185Z,8.71
2024-02-11T12:23:58.182Z,8.61
2024-02-11T12:26:00.041Z,8.62
2024-02-11T12:28:01.748Z,8.74
2024-02-11T12:30:03.403Z,8.57
2024-02-11T12:32:05.352Z,8.63
2024-02-11T12:34:07.160Z,8.76
2024-02-11T12:36:10.463Z,8.80
2024-02-11T12:38:13.128Z,8.83
2024-02-11T12:40:14.791Z,8.80
2024-02-11T12:42:16.532Z,8.75
2024-02-11T12:44:18.095Z,8.97
2024-02-11T12:46:19.944Z,8.89
2024-02-11T12:48:21.966Z,8.91
2024-02-11T12:50:23.696Z,8.76
2024-02-11T12:52:25.358Z,9.04
2024-02-11T12:54:27.024Z,8.73
2024-02-11T12:56:28.632Z,8.88
2024-02-11T12:58:30.253Z,8.70
2024-02-11T13:00:31.951Z,8.80
2024-02-11T13:02:33.523Z,9.29
2024-02-11T13:04:35.176Z,9.03
2024-02-11T13:06:37.034Z,8.99
2024-02-11T13:08:39.757Z,9.02
2024-02-11T13:10:41.517Z,9.16
2024-02-11T13:12:43.085Z,8.94
2024-02-11T13:14:44.661Z,9.35
2024-02-11T13:16:46.258Z,9.45
2024-02-11T13:18:48.081Z,9.23
2024-02-11T13:20:49.722Z,9.28
2024-02-11T13:22:51.435Z,9.19
2024-02-11T13:24:53.219Z,9.27
2024-02-11T13:26:54.793Z,9.25
2024-02-11T13:28:56.393Z,9.36
2024-02-11T13:31:07.061Z,9.30
2024-02-11T13:33:16.352Z,9.58
2024-02-11T13:35:18.049Z,9.58
2024-02-11T13:37:20.404Z,9.23
2024-02-11T13:39:22.195Z,9.29
2024-02-11T13:41:24.080Z,9.32
2024-02-11T13:43:25.673Z,9.14
2024-02-11T13:45:27.379Z,9.30
2024-02-11T13:47:29.262Z,9.32
2024-02-11T13:49:30.936Z,9.35
2024-02-11T13:51:32.560Z,9.13
2024-02-11T13:53:34.174Z,9.40
2024-02-11T13:55:35.813Z,9.50
2024-02-11T13:57:37.861Z,9.16
2024-02-11T13:59:39.415Z,9.35
2024-02-11T14:01:41.036Z,9.40
2024-02-11T14:03:43.024Z,9.27
2024-02-11T14:05:44.934Z,9.12
2024-02-11T14:07:47.467Z,9.22
2024-02-11T14:09:49.102Z,9.38
2024-02-11T14:11:50.768Z,9.50
2024-02-11T14:13:52.601Z,9.55
2024-02-11T14:15:54.334Z,9.68
2024-02-11T14:17:56.058Z,9.61
2024-02-11T14:19:57.647Z,9.50
2024-02-11T14:21:59.542Z,9.53
2024-02-11T14:24:01.132Z,9.33
2024-02-11T14:26:03.144Z,9.23
2024-02-11T14:28:05.046Z,9.32
2024-02-11T14:30:07.541Z,9.59
2024-02-11T14:32:09.161Z,9.57
2024-02-11T14:34:11.802Z,9.41
2024-02-11T14:36:13.440Z,9.45
2024-02-11T14:38:15.075Z,9.35
2024-02-11T14:40:16.870Z,9.48
2024-02-11T14:42:18.816Z,9.24
2024-02-11T14:44:20.427Z,9.37
2024-02-11T14:46:22.105Z,9.44
2024-02-11T14:48:23.910Z,9.60
2024-02-11T14:50:25.622Z,9.59
2024-02-11T14:52:28.682Z,9.43
2024-02-11T14:54:30.362Z,9.49
2024-02-11T14:56:32.007Z,9.69
2024-02-11T14:58:34.045Z,9.52
2024-02-11T15:00:35.717Z,9.60
2024-02-11T15:02:38.554Z,9.32
2024-02-11T15:04:40.272Z,9.44
2024-02-11T15:06:41.878Z,9.52
2024-02-11T15:08:44.652Z,9.55
2024-02-11T15:10:46.448Z,9.49
2024-02-11T15:12:48.042Z,9.70
2024-02-11T15:14:49.569Z,9.43
2024-02-11T15:16:51.442Z,9.79
2024-02-11T15:18:53.127Z,9.71
2024-02-11T15:20:54.801Z,9.54
2024-02-11T15:22:56.487Z,9.68
2024-02-11T15:24:58.193Z,9.90
2024-02-11T15:26:59.771Z,9.65
2024-02-11T15:29:01.551Z,9.92
2024-02-11T15:31:03.398Z,9.88
2024-02-11T15:33:06.416Z,9.91
2024-02-11T15:35:08.292Z,9.96
2024-02-11T15:37:10.147Z,9.67
2024-02-11T15:39:11.784Z,9.45
2024-02-11T15:41:13.615Z,9.35
2024-02-11T15:43:15.316Z,9.58
2024-02-11T15:45:16.962Z,9.37
2024-02-11T15:47:18.793Z,9.60
2024-02-11T15:49:20.496Z,9.68
2024-02-11T15:51:22.034Z,9.75
2024-02-11T15:53:23.643Z,9.59
2024-02-11T15:55:25.438Z,9.67
2024-02-11T15:57:27.697Z,9.54
2024-02-11T15:59:29.850Z,9.57
2024-02-11T16:01:31.603Z,9.87
2024-02-11T16:03:33.222Z,9.86
2024-02-11T16:05:35.094Z,9.61
2024-02-11T16:07:36.987Z,9.75
2024-02-11T16:09:38.598Z,9.51
2024-02-11T16:11:40.372Z,9.55
2024-02-11T16:13:41.941Z,9.72
2024-02-11T16:15:43.493Z,10.05
2024-02-11T16:17:45.300Z,10.17
2024-02-11T16:19:46.904Z,9.85
2024-02-11T16:21:48.433Z,9.73
2024-02-11T16:23:50.148Z,9.77
2024-02-11T16:25:51.873Z,9.87
2024-02-11T16:27:53.689Z,10.01
2024-02-11T16:29:55.531Z,9.78
2024-02-11T16:31:58.104Z,9.97
2024-02-11T16:33:59.662Z,9.98
2024-02-11T16:36:01.892Z,10.22
2024-02-11T16:38:03.931Z,9.67
2024-02-11T16:40:06.016Z,9.82
2024-02-11T16:42:07.720Z,10.12
2024-02-11T16:44:09.824Z,9.98
2024-02-11T16:46:11.404Z,10.12
2024-02-11T16:48:13.188Z,10.07
2024-02-11T16:50:15.039Z,10.06
2024-02-11T16:52:17.047Z,10.11
2024-02-11T16:54:18.583Z,10.33
2024-02-11T16:56:20.411Z,10.27
2024-02-11T16:58:21.972Z,9.96
2024-02-11T17:00:23.589Z,10.12
2024-02-11T17:02:25.233Z,10.21
2024-02-11T17:04:26.856Z,10.26
2024-02-11T17:06:28.529Z,10.22
2024-02-11T17:08:30.943Z,10.00
2024-02-11T17:10:32.574Z,10.19
2024-02-11T17:12:34.297Z,10.02
2024-02-11T17:14:35.927Z,9.93
2024-02-11T17:16:37.488Z,9.63
2024-02-11T17:18:39.438Z,9.89
2024-02-11T17:20:42.331Z,9.73
2024-02-11T17:22:45.222Z,10.00
2024-02-11T17:24:46.968Z,9.90
2024-02-11T17:26:48.772Z,10.13
2024-02-11T17:28:50.470Z,9.93
2024-02-11T17:30:52.028Z,9.71
2024-02-11T17:32:58.737Z,9.98
2024-02-11T17:35:01.873Z,10.20
2024-02-11T17:37:03.556Z,10.23
2024-02-11T17:39:05.103Z,10.18
2024-02-11T17:41:06.660Z,10.27
2024-02-11T17:43:08.444Z,10.17
2024-02-11T17:45:13.609Z,10.08
2024-02-11T17:47:15.320Z,10.07
2024-02-11T17:49:17.175Z,9.85
2024-02-11T17:51:18.898Z,10.15
2024-02-11T17:53:22.053Z,10.28
2024-02-11T17:55:26.626Z,10.27
2024-02-11T17:57:28.292Z,10.23
2024-02-11T17:59:30.239Z,10.12
2024-02-11T18:01:31.878Z,10.20
2024-02-11T18:05:36.087Z,10.03
2024-02-11T18:07:37.922Z,10.17
2024-02-11T18:09:40.483Z,10.47
2024-02-11T18:11:42.139Z,10.38
2024-02-11T18:13:43.984Z,10.33
2024-02-11T18:15:45.588Z,10.38
2024-02-11T18:17:47.400Z,10.18
2024-02-11T18:19:49.113Z,10.22
2024-02-11T18:21:52.917Z,10.16
2024-02-11T18:23:54.526Z,10.06
2024-02-11T18:28:03.188Z,10.19
2024-02-11T18:30:06.064Z,10.22
2024-02-11T18:32:07.686Z,10.49
2024-02-11T18:34:09.598Z,10.47
2024-02-11T18:36:11.566Z,10.58
2024-02-11T18:38:13.372Z,10.57
2024-02-11T18:40:15.062Z,10.60
2024-02-11T18:42:17.546Z,10.47
2024-02-11T18:44:19.272Z,10.74
2024-02-11T18:46:20.898Z,10.47
2024-02-11T18:48:22.509Z,10.60
2024-02-11T18:50:24.487Z,10.53
2024-02-11T18:52:26.211Z,10.37
2024-02-11T18:54:27.745Z,10.58
2024-02-11T18:56:29.774Z,10.51
2024-02-11T18:58:33.033Z,10.58
2024-02-11T19:00:35.146Z,10.74
2024-02-11T19:02:36.874Z,10.66
2024-02-11T19:04:39.054Z,10.70
2024-02-11T19:06:40.619Z,10.54
2024-02-11T19:08:42.275Z,10.40
2024-02-11T19:10:45.095Z,10.42
2024-02-11T19:12:46.681Z,10.57
2024-02-11T19:14:48.346Z,10.71
2024-02-11T19:16:50.276Z,10.80
2024-02-11T19:18:51.879Z,10.89
2024-02-11T19:20:53.745Z,10.88
2024-02-11T19:22:55.329Z,10.87
2024-02-11T19:24:56.875Z,10.81
2024-02-11T19:26:58.523Z,10.81
2024-02-11T19:29:00.134Z,10.96
2024-02-11T19:31:01.763Z,11.03
2024-02-11T19:33:03.658Z,10.96
2024-02-11T19:35:05.537Z,11.08
2024-02-11T19:37:07.144Z,10.90
2024-02-11T19:39:08.763Z,10.78
2024-02-11T19:41:11.850Z,10.72
2024-02-11T19:43:13.383Z,10.61
2024-02-11T19:45:14.954Z,10.66
2024-02-11T19:47:16.599Z,10.73
2024-02-11T19:49:18.185Z,10.86
2024-02-11T19:51:19.767Z,10.84
2024-02-11T19:53:31.568Z,10.63
2024-02-11T19:55:39.525Z,10.63
2024-02-11T19:57:42.337Z,10.54
2024-02-11T19:59:44.363Z,10.55
2024-02-11T20:01:45.956Z,10.71
2024-02-11T20:03:47.484Z,10.83
2024-02-11T20:05:49.244Z,10.71
2024-02-11T20:07:51.017Z,10.77
2024-02-11T20:09:53.094Z,10.51
2024-02-11T20:11:54.668Z,10.67
2024-02-11T20:13:56.225Z,10.50
2024-02-11T20:15:57.775Z,10.49
2024-02-11T20:17:59.383Z,10.36
2024-02-11T20:20:01.009Z,10.46
2024-02-11T20:22:02.945Z,10.41
2024-02-11T20:24:05.754Z,10.42
2024-02-11T20:26:07.423Z,10.66
2024-02-11T20:28:08.983Z,10.64
2024-02-11T20:30:11.134Z,10.70
2024-02-11T20:32:12.745Z,10.79
2024-02-11T20:34:14.475Z,10.62
2024-02-11T20:36:16.115Z,10.56
2024-02-11T20:38:17.772Z,10.71
2024-02-11T20:40:19.615Z,10.34
2024-02-11T20:42:21.202Z,10.48
2024-02-11T20:44:23.367Z,10.53
2024-02-11T20:46:25.336Z,10.27
2024-02-11T20:48:27.055Z,9.82
2024-02-11T20:50:28.646Z,10.67
2024-02-11T20:52:30.381Z,10.46
2024-02-11T20:54:32.097Z,10.49
2024-02-11T20:56:34.066Z,10.60
2024-02-11T20:58:35.663Z,10.76
2024-02-11T21:00:37.431Z,10.92
2024-02-11T21:02:40.322Z,10.89
2024-02-11T21:04:42.114Z,10.83
2024-02-11T21:06:43.736Z,10.97
2024-02-11T21:08:45.295Z,10.87
2024-02-11T21:10:46.950Z,10.83
2024-02-11T21:12:48.917Z,10.76
2024-02-11T21:14:50.588Z,10.87
2024-02-11T21:16:52.181Z,10.85
2024-02-11T21:18:54.077Z,10.81
2024-02-11T21:20:55.675Z,10.81
2024-02-11T21:22:57.578Z,10.58
2024-02-11T21:24:59.379Z,10.63
2024-02-11T21:27:01.094Z,10.48
2024-02-11T21:29:02.802Z,10.53
2024-02-11T21:31:09.072Z,10.62
2024-02-11T21:33:18.079Z,10.47
2024-02-11T21:35:19.834Z,10.46
2024-02-11T21:37:21.592Z,10.46
2024-02-11T21:39:23.390Z,10.58
2024-02-11T21:41:25.053Z,10.61
2024-02-11T21:43:26.863Z,10.73
2024-02-11T21:45:28.563Z,10.71
2024-02-11T21:49:32.191Z,10.72
2024-02-11T21:51:33.742Z,10.58
2024-02-11T21:53:35.384Z,10.64
2024-02-11T21:55:37.119Z,10.41
2024-02-11T21:57:42.255Z,10.50
2024-02-11T21:59:43.794Z,10.47
2024-02-11T22:01:45.651Z,10.46
2024-02-11T22:03:47.224Z,10.59
2024-02-11T22:05:48.836Z,10.35
2024-02-11T22:07:50.678Z,10.43
2024-02-11T22:09:52.392Z,10.38
2024-02-11T22:11:53.946Z,10.49
2024-02-11T22:13:55.563Z,10.38
2024-02-11T22:15:57.253Z,10.50
2024-02-11T22:17:59.114Z,10.51
2024-02-11T22:20:01.250Z,10.46
2024-02-11T22:22:02.809Z,10.56
2024-02-11T22:24:04.454Z,10.73
2024-02-11T22:26:06.300Z,10.61
2024-02-11T22:28:07.857Z,10.54
2024-02-11T22:30:09.683Z,10.26
2024-02-11T22:32:11.316Z,10.37
2024-02-11T22:34:13.170Z,10.43
2024-02-11T22:36:15.987Z,10.31
2024-02-11T22:38:18.182Z,10.26
2024-02-11T22:40:20.228Z,10.28
2024-02-11T22:42:21.954Z,10.20
2024-02-11T22:44:23.621Z,10.32
2024-02-11T22:46:25.301Z,10.32
2024-02-11T22:48:26.893Z,10.53
2024-02-11T22:50:28.673Z,10.47
2024-02-11T22:52:30.418Z,10.48
2024-02-11T22:54:31.945Z,10.46
2024-02-11T22:56:34.070Z,10.39
2024-02-11T22:58:35.756Z,10.40
2024-02-11T23:00:37.433Z,10.59
2024-02-11T23:02:39.250Z,10.60
2024-02-11T23:04:40.851Z,10.67
2024-02-11T23:06:42.564Z,10.52
2024-02-11T23:08:44.413Z,10.22
2024-02-11T23:10:46.119Z,10.19
2024-02-11T23:12:47.809Z,10.19
2024-02-11T23:14:49.431Z,10.21
2024-02-11T23:16:51.126Z,10.23
2024-02-11T23:18:52.925Z,10.03
2024-02-11T23:20:54.633Z,10.08
2024-02-11T23:22:56.305Z,10.17
2024-02-11T23:24:57.828Z,10.43
2024-02-11T23:27:00.014Z,10.46
2024-02-11T23:29:01.753Z,10.44
2024-02-11T23:31:03.349Z,10.47
2024-02-11T23:33:05.491Z,10.61
2024-02-11T23:35:07.460Z,10.59
2024-02-11T23:37:09.000Z,10.55
2024-02-11T23:39:10.554Z,10.55
2024-02-11T23:41:12.343Z,10.47
2024-02-11T23:43:13.917Z,10.33
2024-02-11T23:45:15.462Z,10.36
2024-02-11T23:47:17.121Z,10.40
2024-02-11T23:49:18.787Z,10.59
2024-02-11T23:51:20.813Z,10.53
2024-02-11T23:53:22.508Z,10.42
2024-02-11T23:55:24.138Z,10.46
2024-02-11T23:57:25.689Z,10.81
2024-02-11T23:59:27.410Z,10.58
